Time;durP1;ratioP1;P1;durP2;ratioP2;P2;SDS_P1;SDS_P2;PMS_P1;PMS_P2;Temp;Humidity;BMP_temperature;BMP_pressure;BME280_temperature;BME280_humidity;BME280_pressure;Samples;Min_cycle;Max_cycle;Signal;HPM_P1;HPM_P2
2022/09/16 00:01:11;;;;;;;0.00;0.00;;;;;;;;;;5122991;27;20114;-61
2022/09/16 00:03:36;;;;;;;0.00;0.00;;;;;;;;;;5126953;28;20031;-59
2022/09/16 00:06:01;;;;;;;0.00;0.00;;;;;;;;;;5122641;27;20430;-59
2022/09/16 00:08:27;;;;;;;0.00;0.00;;;;;;;;;;5122639;27;20484;-59
2022/09/16 00:10:52;;;;;;;0.00;0.00;;;;;;;;;;5125335;27;20037;-60
2022/09/16 00:13:18;;;;;;;0.00;0.00;;;;;;;;;;5120879;27;20361;-60
2022/09/16 00:15:47;;;;;;;0.00;0.00;;;;;;;;;;5121494;28;20039;-60
2022/09/16 00:18:13;;;;;;;0.00;0.00;;;;;;;;;;5125765;27;20102;-60
2022/09/16 00:20:46;;;;;;;0.00;0.00;;;;;;;;;;5129486;27;20110;-60
2022/09/16 00:23:11;;;;;;;0.00;0.00;;;;;;;;;;5123802;28;20027;-60
2022/09/16 00:25:36;;;;;;;0.00;0.00;;;;;;;;;;5117792;28;20093;-60
2022/09/16 00:28:02;;;;;;;0.00;0.00;;;;;;;;;;5124503;28;20019;-60
2022/09/16 00:30:27;;;;;;;0.00;0.00;;;;;;;;;;5122682;27;20016;-60
2022/09/16 00:32:52;;;;;;;0.00;0.00;;;;;;;;;;5126442;27;20011;-60
2022/09/16 00:35:17;;;;;;;0.00;0.00;;;;;;;;;;5126115;27;20030;-60
2022/09/16 00:37:43;;;;;;;0.00;0.00;;;;;;;;;;5123360;27;20035;-60
2022/09/16 00:40:09;;;;;;;0.00;0.00;;;;;;;;;;5119772;27;20034;-60
2022/09/16 00:42:38;;;;;;;0.00;0.00;;;;;;;;;;5119447;27;20321;-60
2022/09/16 00:45:12;;;;;;;0.00;0.00;;;;;;;;;;5122368;27;20085;-60
2022/09/16 00:47:40;;;;;;;0.00;0.00;;;;;;;;;;5126580;27;20023;-60
2022/09/16 00:50:11;;;;;;;0.00;0.00;;;;;;;;;;5121570;27;20613;-61
2022/09/16 00:52:38;;;;;;;0.00;0.00;;;;;;;;;;5127336;27;20021;-61
2022/09/16 00:55:05;;;;;;;0.00;0.00;;;;;;;;;;5124536;27;20068;-60
2022/09/16 00:57:31;;;;;;;0.00;0.00;;;;;;;;;;5118804;27;20052;-60
2022/09/16 00:59:57;;;;;;;0.00;0.00;;;;;;;;;;5129733;27;20045;-61
2022/09/16 01:02:22;;;;;;;0.00;0.00;;;;;;;;;;5122116;27;20475;-60
2022/09/16 01:05:03;;;;;;;0.00;0.00;;;;;;;;;;5123504;27;20019;-60
2022/09/16 01:07:54;;;;;;;0.00;0.00;;;;;;;;;;5116701;27;20027;-59
2022/09/16 01:10:22;;;;;;;0.00;0.00;;;;;;;;;;5123283;27;20103;-60
2022/09/16 01:12:58;;;;;;;0.00;0.00;;;;;;;;;;5119883;27;20418;-60
2022/09/16 01:15:29;;;;;;;0.00;0.00;;;;;;;;;;5112493;27;20080;-60
2022/09/16 01:17:59;;;;;;;0.00;0.00;;;;;;;;;;5129333;27;20106;-61
2022/09/16 01:20:24;;;;;;;0.00;0.00;;;;;;;;;;5124708;27;20038;-61
2022/09/16 01:22:49;;;;;;;0.00;0.00;;;;;;;;;;5128941;27;20080;-60
2022/09/16 01:25:17;;;;;;;0.00;0.00;;;;;;;;;;5125159;27;20106;-60
2022/09/16 01:27:42;;;;;;;0.00;0.00;;;;;;;;;;5126509;27;20333;-61
2022/09/16 01:30:19;;;;;;;0.00;0.00;;;;;;;;;;5121394;27;20028;-61
2022/09/16 01:32:45;;;;;;;0.00;0.00;;;;;;;;;;5122154;27;20257;-60
2022/09/16 01:35:10;;;;;;;0.00;0.00;;;;;;;;;;5126425;27;20034;-60
2022/09/16 01:37:38;;;;;;;0.00;0.00;;;;;;;;;;5122625;27;20813;-61
2022/09/16 01:40:20;;;;;;;0.00;0.00;;;;;;;;;;5125745;27;20257;-60
2022/09/16 01:42:50;;;;;;;0.00;0.00;;;;;;;;;;5117743;27;20418;-61
2022/09/16 01:45:29;;;;;;;0.00;0.00;;;;;;;;;;5119240;27;20459;-61
2022/09/16 01:47:58;;;;;;;0.00;0.00;;;;;;;;;;5119860;27;20019;-60
2022/09/16 01:50:26;;;;;;;0.00;0.00;;;;;;;;;;5120360;27;20032;-60
2022/09/16 01:53:03;;;;;;;0.00;0.00;;;;;;;;;;5127452;27;20023;-60
2022/09/16 01:55:32;;;;;;;0.00;0.00;;;;;;;;;;5123415;27;20022;-60
2022/09/16 01:58:08;;;;;;;0.00;0.00;;;;;;;;;;5119767;27;20047;-60
2022/09/16 02:00:33;;;;;;;0.00;0.00;;;;;;;;;;5125491;27;20085;-60
2022/09/16 02:03:12;;;;;;;0.00;0.00;;;;;;;;;;5112205;27;20480;-61
2022/09/16 02:05:38;;;;;;;0.00;0.00;;;;;;;;;;5124330;27;20426;-61
2022/09/16 02:08:11;;;;;;;0.00;0.00;;;;;;;;;;5124055;27;20035;-60
2022/09/16 02:10:57;;;;;;;0.00;0.00;;;;;;;;;;5117029;27;20257;-60
2022/09/16 02:13:24;;;;;;;0.00;0.00;;;;;;;;;;5121060;27;20023;-60
2022/09/16 02:15:51;;;;;;;0.00;0.00;;;;;;;;;;5120542;27;20072;-60
2022/09/16 02:18:18;;;;;;;0.00;0.00;;;;;;;;;;5118152;27;20110;-61
2022/09/16 02:20:44;;;;;;;0.00;0.00;;;;;;;;;;5121900;27;20039;-60
2022/09/16 02:23:13;;;;;;;0.00;0.00;;;;;;;;;;5120992;27;20083;-61
2022/09/16 02:25:39;;;;;;;0.00;0.00;;;;;;;;;;5119849;27;20020;-61
2022/09/16 02:28:06;;;;;;;0.00;0.00;;;;;;;;;;5114925;27;20096;-60
2022/09/16 02:30:31;;;;;;;0.00;0.00;;;;;;;;;;5116292;27;20448;-61
2022/09/16 02:32:59;;;;;;;0.00;0.00;;;;;;;;;;5111710;27;20102;-60
2022/09/16 02:35:25;;;;;;;0.00;0.00;;;;;;;;;;5114443;27;20106;-59
2022/09/16 02:37:54;;;;;;;0.00;0.00;;;;;;;;;;5114176;27;20384;-59
2022/09/16 02:40:23;;;;;;;0.00;0.00;;;;;;;;;;5129707;27;20677;-59
2022/09/16 02:42:48;;;;;;;0.00;0.00;;;;;;;;;;5126975;27;20365;-59
2022/09/16 02:45:13;;;;;;;0.00;0.00;;;;;;;;;;5118758;27;20031;-61
2022/09/16 02:47:51;;;;;;;0.00;0.00;;;;;;;;;;5120633;27;20452;-61
2022/09/16 02:50:39;;;;;;;0.00;0.00;;;;;;;;;;5118256;27;20384;-60
2022/09/16 02:53:21;;;;;;;0.00;0.00;;;;;;;;;;5112538;27;20425;-59
2022/09/16 02:55:58;;;;;;;0.00;0.00;;;;;;;;;;5118153;27;20018;-60
2022/09/16 02:58:23;;;;;;;0.00;0.00;;;;;;;;;;5114251;27;20039;-61
2022/09/16 03:00:50;;;;;;;0.00;0.00;;;;;;;;;;5118282;27;20064;-60
2022/09/16 03:03:16;;;;;;;0.00;0.00;;;;;;;;;;5127367;27;20019;-60
2022/09/16 03:05:59;;;;;;;0.00;0.00;;;;;;;;;;5121990;27;20064;-59
2022/09/16 03:08:24;;;;;;;0.00;0.00;;;;;;;;;;5115476;27;20019;-60
2022/09/16 03:10:51;;;;;;;0.00;0.00;;;;;;;;;;5124582;27;20453;-60
2022/09/16 03:13:27;;;;;;;0.00;0.00;;;;;;;;;;5121410;27;20018;-61
2022/09/16 03:16:10;;;;;;;0.00;0.00;;;;;;;;;;5122640;27;20065;-61
2022/09/16 03:18:38;;;;;;;0.00;0.00;;;;;;;;;;5127516;27;20023;-61
2022/09/16 03:21:06;;;;;;;0.00;0.00;;;;;;;;;;5117298;27;20046;-60
2022/09/16 03:23:43;;;;;;;0.00;0.00;;;;;;;;;;5120572;27;20042;-61
2022/09/16 03:26:24;;;;;;;0.00;0.00;;;;;;;;;;5123581;27;20471;-61
2022/09/16 03:29:01;;;;;;;0.00;0.00;;;;;;;;;;5121167;27;20048;-60
2022/09/16 03:31:31;;;;;;;0.00;0.00;;;;;;;;;;5125041;27;20069;-60
2022/09/16 03:34:05;;;;;;;0.00;0.00;;;;;;;;;;5117032;27;20043;-60
2022/09/16 03:36:32;;;;;;;0.00;0.00;;;;;;;;;;5128337;27;20011;-61
2022/09/16 03:38:59;;;;;;;0.00;0.00;;;;;;;;;;5123288;27;20069;-60
2022/09/16 03:41:26;;;;;;;0.00;0.00;;;;;;;;;;5119980;27;20544;-61
2022/09/16 03:43:52;;;;;;;0.00;0.00;;;;;;;;;;5111933;27;20031;-61
2022/09/16 03:46:18;;;;;;;0.00;0.00;;;;;;;;;;5113718;28;20039;-61
2022/09/16 03:48:43;;;;;;;0.00;0.00;;;;;;;;;;5119105;27;20071;-60
2022/09/16 03:51:08;;;;;;;0.00;0.00;;;;;;;;;;5120912;27;20031;-59
2022/09/16 03:53:33;;;;;;;0.00;0.00;;;;;;;;;;5112098;28;20020;-60
2022/09/16 03:55:58;;;;;;;0.00;0.00;;;;;;;;;;5116179;28;20072;-60
2022/09/16 03:58:23;;;;;;;0.00;0.00;;;;;;;;;;5125594;28;20849;-61
2022/09/16 04:00:52;;;;;;;0.00;0.00;;;;;;;;;;5117680;28;20268;-60
2022/09/16 04:03:17;;;;;;;0.00;0.00;;;;;;;;;;5113495;28;20024;-60
2022/09/16 04:05:43;;;;;;;0.00;0.00;;;;;;;;;;5116948;27;20027;-60
2022/09/16 04:08:08;;;;;;;0.00;0.00;;;;;;;;;;5116787;27;20027;-60
2022/09/16 04:10:33;;;;;;;0.00;0.00;;;;;;;;;;5124908;27;20059;-61
2022/09/16 04:12:59;;;;;;;0.00;0.00;;;;;;;;;;5116157;27;20253;-60
2022/09/16 04:15:24;;;;;;;0.00;0.00;;;;;;;;;;5133781;27;20484;-60
2022/09/16 04:17:49;;;;;;;0.00;0.00;;;;;;;;;;5122186;27;20031;-61
2022/09/16 04:20:14;;;;;;;0.00;0.00;;;;;;;;;;5126344;27;20023;-61
2022/09/16 04:22:40;;;;;;;0.00;0.00;;;;;;;;;;5123570;27;20047;-60
2022/09/16 04:25:05;;;;;;;0.00;0.00;;;;;;;;;;5126554;27;20121;-60
2022/09/16 04:27:30;;;;;;;0.00;0.00;;;;;;;;;;5131688;27;20435;-60
2022/09/16 04:29:55;;;;;;;0.00;0.00;;;;;;;;;;5121684;27;20047;-60
2022/09/16 04:32:21;;;;;;;0.00;0.00;;;;;;;;;;5116692;27;20888;-60
2022/09/16 04:34:46;;;;;;;0.00;0.00;;;;;;;;;;5117278;27;20077;-60
2022/09/16 04:37:11;;;;;;;0.00;0.00;;;;;;;;;;5121618;27;20031;-60
2022/09/16 04:39:36;;;;;;;0.00;0.00;;;;;;;;;;5130463;27;20483;-59
2022/09/16 04:42:04;;;;;;;0.00;0.00;;;;;;;;;;5118412;27;20041;-60
2022/09/16 04:44:29;;;;;;;0.00;0.00;;;;;;;;;;5121180;27;20087;-60
2022/09/16 04:46:54;;;;;;;0.00;0.00;;;;;;;;;;5121099;27;20027;-60
2022/09/16 04:49:19;;;;;;;0.00;0.00;;;;;;;;;;5125597;27;20059;-61
2022/09/16 04:51:45;;;;;;;0.00;0.00;;;;;;;;;;5112202;28;20122;-60
2022/09/16 04:54:11;;;;;;;0.00;0.00;;;;;;;;;;5125602;27;20012;-60
2022/09/16 04:56:36;;;;;;;0.00;0.00;;;;;;;;;;5126092;27;20025;-60
2022/09/16 04:59:03;;;;;;;0.00;0.00;;;;;;;;;;5119178;27;20047;-61
2022/09/16 05:01:30;;;;;;;0.00;0.00;;;;;;;;;;5122135;27;20402;-60
2022/09/16 05:04:03;;;;;;;0.00;0.00;;;;;;;;;;5119041;28;20507;-60
2022/09/16 05:06:31;;;;;;;0.00;0.00;;;;;;;;;;5122699;28;20088;-60
2022/09/16 05:08:56;;;;;;;0.00;0.00;;;;;;;;;;5117803;28;20072;-60
2022/09/16 05:11:23;;;;;;;0.00;0.00;;;;;;;;;;5114426;28;20030;-60
2022/09/16 05:13:48;;;;;;;0.00;0.00;;;;;;;;;;5118263;28;20444;-61
2022/09/16 05:16:14;;;;;;;0.00;0.00;;;;;;;;;;5117433;28;20085;-60
2022/09/16 05:18:40;;;;;;;0.00;0.00;;;;;;;;;;5122776;27;20064;-60
2022/09/16 05:21:06;;;;;;;0.00;0.00;;;;;;;;;;5124471;27;20031;-60
2022/09/16 05:23:31;;;;;;;0.47;0.47;;;;;;;;;;5126362;28;20026;-60
2022/09/16 05:26:01;;;;;;;0.00;0.00;;;;;;;;;;5121422;27;20031;-60
2022/09/16 05:28:27;;;;;;;0.00;0.00;;;;;;;;;;5120748;28;20557;-61
2022/09/16 05:30:52;;;;;;;0.00;0.00;;;;;;;;;;5117580;27;20066;-59
2022/09/16 05:33:17;;;;;;;0.00;0.00;;;;;;;;;;5122063;28;20019;-59
2022/09/16 05:35:44;;;;;;;0.00;0.00;;;;;;;;;;5116944;27;20011;-60
2022/09/16 05:38:09;;;;;;;0.00;0.00;;;;;;;;;;5116939;27;20023;-60
2022/09/16 05:40:35;;;;;;;0.00;0.00;;;;;;;;;;5126667;28;20364;-60
2022/09/16 05:43:00;;;;;;;0.00;0.00;;;;;;;;;;5120641;27;20023;-60
2022/09/16 05:45:25;;;;;;;0.00;0.00;;;;;;;;;;5122637;27;20472;-60
2022/09/16 05:47:50;;;;;;;0.00;0.00;;;;;;;;;;5124016;27;20036;-60
2022/09/16 05:50:15;;;;;;;0.00;0.00;;;;;;;;;;5121510;28;20451;-60
2022/09/16 05:52:41;;;;;;;0.00;0.00;;;;;;;;;;5124280;28;20033;-60
2022/09/16 05:55:06;;;;;;;0.00;0.00;;;;;;;;;;5125292;27;20011;-60
2022/09/16 05:57:31;;;;;;;0.00;0.00;;;;;;;;;;5079072;27;1079795;-61
2022/09/16 05:59:56;;;;;;;0.00;0.00;;;;;;;;;;5123361;27;20028;-61
2022/09/16 06:02:22;;;;;;;0.00;0.00;;;;;;;;;;5117299;27;20034;-61
2022/09/16 06:04:47;;;;;;;0.00;0.00;;;;;;;;;;5125700;27;20468;-59
2022/09/16 06:07:12;;;;;;;0.00;0.00;;;;;;;;;;5116451;27;20030;-60
2022/09/16 06:09:37;;;;;;;0.00;0.00;;;;;;;;;;5123878;27;20472;-60
2022/09/16 06:12:03;;;;;;;0.00;0.00;;;;;;;;;;5114911;27;20709;-60
2022/09/16 06:14:28;;;;;;;0.00;0.00;;;;;;;;;;5122580;27;20015;-60
2022/09/16 06:16:53;;;;;;;0.00;0.00;;;;;;;;;;5122207;27;20110;-61
2022/09/16 06:19:19;;;;;;;0.00;0.00;;;;;;;;;;5123063;27;20098;-60
2022/09/16 06:21:44;;;;;;;0.00;0.00;;;;;;;;;;5119445;27;20369;-60
2022/09/16 06:24:10;;;;;;;0.00;0.00;;;;;;;;;;5122330;27;20031;-59
2022/09/16 06:26:37;;;;;;;0.00;0.00;;;;;;;;;;5124838;27;20066;-60
2022/09/16 06:29:02;;;;;;;0.00;0.00;;;;;;;;;;5116184;27;20024;-60
2022/09/16 06:31:27;;;;;;;0.00;0.00;;;;;;;;;;5121962;27;20022;-60
2022/09/16 06:33:53;;;;;;;0.00;0.00;;;;;;;;;;5125913;27;20602;-61
2022/09/16 06:36:23;;;;;;;0.00;0.00;;;;;;;;;;5125440;27;20030;-60
2022/09/16 06:38:49;;;;;;;0.00;0.00;;;;;;;;;;5125091;27;20050;-60
2022/09/16 06:41:15;;;;;;;0.00;0.00;;;;;;;;;;5121078;27;20028;-61
2022/09/16 06:43:40;;;;;;;0.00;0.00;;;;;;;;;;5121686;27;20541;-61
2022/09/16 06:46:12;;;;;;;0.00;0.00;;;;;;;;;;5125545;27;20076;-60
2022/09/16 06:48:38;;;;;;;0.00;0.00;;;;;;;;;;5124766;27;20015;-60
2022/09/16 06:51:04;;;;;;;0.00;0.00;;;;;;;;;;5123619;27;20049;-60
2022/09/16 06:53:30;;;;;;;0.00;0.00;;;;;;;;;;5117015;27;20049;-60
2022/09/16 06:56:03;;;;;;;0.00;0.00;;;;;;;;;;5118482;27;20110;-60
2022/09/16 06:58:30;;;;;;;0.00;0.00;;;;;;;;;;5115456;27;20043;-61
2022/09/16 07:00:56;;;;;;;0.00;0.00;;;;;;;;;;5119956;27;20052;-61
2022/09/16 07:03:22;;;;;;;0.00;0.00;;;;;;;;;;5124032;27;20023;-61
2022/09/16 07:05:57;;;;;;;0.00;0.00;;;;;;;;;;5122368;27;20023;-61
2022/09/16 07:08:22;;;;;;;0.00;0.00;;;;;;;;;;5109542;27;20023;-61
2022/09/16 07:10:54;;;;;;;0.00;0.00;;;;;;;;;;5112797;27;20070;-60
2022/09/16 07:13:20;;;;;;;0.00;0.00;;;;;;;;;;5121364;27;20048;-62
2022/09/16 07:15:45;;;;;;;0.00;0.00;;;;;;;;;;5120913;27;20806;-62
2022/09/16 07:18:10;;;;;;;1.30;0.63;;;;;;;;;;5125076;27;20265;-61
2022/09/16 07:20:35;;;;;;;0.00;0.00;;;;;;;;;;5121549;27;20261;-62
2022/09/16 07:23:00;;;;;;;0.30;0.30;;;;;;;;;;5121399;27;20056;-61
2022/09/16 07:25:27;;;;;;;0.00;0.00;;;;;;;;;;5124613;27;20050;-62
2022/09/16 07:27:52;;;;;;;0.00;0.00;;;;;;;;;;5122569;27;20091;-62
2022/09/16 07:30:18;;;;;;;0.20;0.20;;;;;;;;;;5120248;27;20072;-62
2022/09/16 07:32:43;;;;;;;0.00;0.00;;;;;;;;;;5129976;27;20098;-62
2022/09/16 07:35:08;;;;;;;0.00;0.00;;;;;;;;;;5123570;27;20019;-61
2022/09/16 07:37:33;;;;;;;0.00;0.00;;;;;;;;;;5122741;27;20031;-60
2022/09/16 07:39:59;;;;;;;0.00;0.00;;;;;;;;;;5121516;27;20376;-61
2022/09/16 07:42:24;;;;;;;0.00;0.00;;;;;;;;;;5119447;27;20023;-61
2022/09/16 07:44:49;;;;;;;0.00;0.00;;;;;;;;;;5119486;27;20302;-62
2022/09/16 07:47:15;;;;;;;0.00;0.00;;;;;;;;;;5120058;28;20296;-61
2022/09/16 07:49:47;;;;;;;0.00;0.00;;;;;;;;;;5120507;27;20275;-59
2022/09/16 07:52:12;;;;;;;0.00;0.00;;;;;;;;;;5115484;28;20016;-59
2022/09/16 07:54:38;;;;;;;0.00;0.00;;;;;;;;;;5123724;28;20045;-59
2022/09/16 07:57:03;;;;;;;0.00;0.00;;;;;;;;;;5117756;28;20031;-59
2022/09/16 07:59:28;;;;;;;0.22;0.22;;;;;;;;;;5118525;27;20465;-60
2022/09/16 08:01:53;;;;;;;0.00;0.00;;;;;;;;;;5123296;27;20046;-60
2022/09/16 08:04:19;;;;;;;0.00;0.00;;;;;;;;;;5120995;28;20356;-60
2022/09/16 08:06:44;;;;;;;0.45;0.45;;;;;;;;;;5120077;27;20019;-59
2022/09/16 08:09:09;;;;;;;1.05;0.98;;;;;;;;;;5119794;27;20072;-60
2022/09/16 08:11:35;;;;;;;0.10;0.10;;;;;;;;;;5122549;27;20072;-59
2022/09/16 08:14:00;;;;;;;0.55;0.55;;;;;;;;;;5122581;28;20019;-60
2022/09/16 08:16:26;;;;;;;0.10;0.10;;;;;;;;;;5121007;27;20036;-60
2022/09/16 08:18:53;;;;;;;4.05;0.77;;;;;;;;;;5121265;27;20106;-60
2022/09/16 08:21:20;;;;;;;0.00;0.00;;;;;;;;;;5117115;28;20081;-60
2022/09/16 08:23:45;;;;;;;0.00;0.00;;;;;;;;;;5120163;28;20015;-60
2022/09/16 08:26:12;;;;;;;0.00;0.00;;;;;;;;;;5125890;27;20023;-60
2022/09/16 08:28:38;;;;;;;0.00;0.00;;;;;;;;;;5123111;28;20071;-59
2022/09/16 08:31:03;;;;;;;0.00;0.00;;;;;;;;;;5116953;27;20020;-59
2022/09/16 08:33:28;;;;;;;0.00;0.00;;;;;;;;;;5118019;28;20371;-59
2022/09/16 08:35:58;;;;;;;0.40;0.25;;;;;;;;;;5119119;28;20042;-59
2022/09/16 08:38:23;;;;;;;0.03;0.03;;;;;;;;;;5115870;28;20028;-61
2022/09/16 08:40:48;;;;;;;0.30;0.30;;;;;;;;;;5124999;27;20026;-60
2022/09/16 08:43:18;;;;;;;0.32;0.32;;;;;;;;;;5121241;28;20617;-59
2022/09/16 08:45:43;;;;;;;0.10;0.10;;;;;;;;;;5120641;28;20023;-59
2022/09/16 08:48:27;;;;;;;0.00;0.00;;;;;;;;;;5118399;28;20035;-60
2022/09/16 08:50:53;;;;;;;0.00;0.00;;;;;;;;;;5127396;27;20031;-60
2022/09/16 08:53:24;;;;;;;1.05;0.98;;;;;;;;;;5127237;27;20080;-59
2022/09/16 08:55:50;;;;;;;0.20;0.20;;;;;;;;;;5127468;27;20019;-60
2022/09/16 08:58:21;;;;;;;0.10;0.10;;;;;;;;;;5125382;27;20445;-61
2022/09/16 09:00:49;;;;;;;0.00;0.00;;;;;;;;;;5122754;27;20368;-61
2022/09/16 09:03:33;;;;;;;0.00;0.00;;;;;;;;;;5125969;27;20388;-61
2022/09/16 09:06:00;;;;;;;0.65;0.65;;;;;;;;;;5127127;27;20031;-60
2022/09/16 09:08:32;;;;;;;0.13;0.13;;;;;;;;;;5119649;27;20015;-61
2022/09/16 09:10:57;;;;;;;0.47;0.43;;;;;;;;;;5125089;27;20027;-60
2022/09/16 09:13:37;;;;;;;0.07;0.07;;;;;;;;;;5129674;27;20023;-61
2022/09/16 09:16:08;;;;;;;1.27;0.28;;;;;;;;;;5124948;27;20268;-59
2022/09/16 09:18:42;;;;;;;0.63;0.15;;;;;;;;;;5130168;27;20093;-59
2022/09/16 09:21:26;;;;;;;0.00;0.00;;;;;;;;;;5128040;27;20062;-59
2022/09/16 09:24:03;;;;;;;0.20;0.20;;;;;;;;;;5118059;27;20038;-61
2022/09/16 09:26:37;;;;;;;0.00;0.00;;;;;;;;;;5126726;27;20406;-60
2022/09/16 09:29:22;;;;;;;0.32;0.22;;;;;;;;;;5121601;27;20020;-60
2022/09/16 09:32:02;;;;;;;0.00;0.00;;;;;;;;;;5129143;27;20034;-60
2022/09/16 09:34:37;;;;;;;0.00;0.00;;;;;;;;;;5122852;27;20049;-61
2022/09/16 09:37:21;;;;;;;0.00;0.00;;;;;;;;;;5123077;27;20027;-59
2022/09/16 09:39:47;;;;;;;0.00;0.00;;;;;;;;;;5127817;27;20030;-60
2022/09/16 09:42:20;;;;;;;0.25;0.03;;;;;;;;;;5119218;27;20348;-59
2022/09/16 09:45:08;;;;;;;0.00;0.00;;;;;;;;;;5121548;27;20054;-59
2022/09/16 09:47:40;;;;;;;1.20;0.47;;;;;;;;;;5124400;27;20066;-59
2022/09/16 09:50:27;;;;;;;0.20;0.20;;;;;;;;;;5121973;27;20047;-59
2022/09/16 09:53:12;;;;;;;0.60;0.10;;;;;;;;;;5121513;27;20102;-60
2022/09/16 09:55:39;;;;;;;0.30;0.30;;;;;;;;;;5121917;27;20543;-59
2022/09/16 09:58:04;;;;;;;0.00;0.00;;;;;;;;;;5127267;27;20039;-59
2022/09/16 10:00:30;;;;;;;0.00;0.00;;;;;;;;;;5122689;27;20094;-60
2022/09/16 10:03:02;;;;;;;0.45;0.15;;;;;;;;;;5122294;27;20536;-61
2022/09/16 10:05:28;;;;;;;0.00;0.00;;;;;;;;;;5125192;27;20372;-60
2022/09/16 10:07:57;;;;;;;0.00;0.00;;;;;;;;;;5128534;27;20044;-60
2022/09/16 10:10:24;;;;;;;0.00;0.00;;;;;;;;;;5122946;27;20019;-58
2022/09/16 10:12:50;;;;;;;0.00;0.00;;;;;;;;;;5124846;27;20031;-59
2022/09/16 10:15:18;;;;;;;0.00;0.00;;;;;;;;;;5121120;27;20034;-60
2022/09/16 10:17:47;;;;;;;0.00;0.00;;;;;;;;;;5119366;27;20198;-61
2022/09/16 10:20:22;;;;;;;0.00;0.00;;;;;;;;;;5119412;27;20023;-60
2022/09/16 10:23:10;;;;;;;0.00;0.00;;;;;;;;;;5121198;27;20027;-61
2022/09/16 10:25:35;;;;;;;0.35;0.35;;;;;;;;;;5129582;27;20055;-61
2022/09/16 10:28:03;;;;;;;2.67;2.10;;;;;;;;;;5115975;27;20633;-61
2022/09/16 10:30:42;;;;;;;0.00;0.00;;;;;;;;;;5109469;28;20028;-64
2022/09/16 10:33:26;;;;;;;0.60;0.60;;;;;;;;;;5109616;28;20046;-63
2022/09/16 10:35:59;;;;;;;0.00;0.00;;;;;;;;;;5116801;27;20141;-63
2022/09/16 10:38:35;;;;;;;0.00;0.00;;;;;;;;;;5121704;27;20023;-63
2022/09/16 10:41:08;;;;;;;0.00;0.00;;;;;;;;;;5116196;27;20122;-63
2022/09/16 10:43:37;;;;;;;0.00;0.00;;;;;;;;;;5122158;27;20375;-67
2022/09/16 10:46:04;;;;;;;0.00;0.00;;;;;;;;;;5114611;27;20103;-60
2022/09/16 10:48:30;;;;;;;0.10;0.10;;;;;;;;;;5121018;27;20038;-61
2022/09/16 10:51:00;;;;;;;0.00;0.00;;;;;;;;;;5128502;27;20076;-61
2022/09/16 10:53:27;;;;;;;0.00;0.00;;;;;;;;;;5118373;27;20019;-61
2022/09/16 10:56:00;;;;;;;0.00;0.00;;;;;;;;;;5130311;27;20043;-62
2022/09/16 10:58:25;;;;;;;0.00;0.00;;;;;;;;;;5123586;27;20122;-60
2022/09/16 11:00:58;;;;;;;0.17;0.17;;;;;;;;;;5127459;27;20102;-62
2022/09/16 11:03:35;;;;;;;0.00;0.00;;;;;;;;;;5113912;28;20026;-61
2022/09/16 11:06:14;;;;;;;0.00;0.00;;;;;;;;;;5124781;27;20058;-61
2022/09/16 11:08:49;;;;;;;0.08;0.08;;;;;;;;;;5113751;27;20054;-60
2022/09/16 11:11:15;;;;;;;0.00;0.00;;;;;;;;;;5114175;28;20023;-60
2022/09/16 11:13:45;;;;;;;0.00;0.00;;;;;;;;;;5123909;27;20046;-60
2022/09/16 11:16:10;;;;;;;0.00;0.00;;;;;;;;;;5120073;27;20015;-60
2022/09/16 11:18:45;;;;;;;0.00;0.00;;;;;;;;;;5128554;27;20024;-61
2022/09/16 11:21:13;;;;;;;0.00;0.00;;;;;;;;;;5113774;28;20061;-60
2022/09/16 11:23:41;;;;;;;0.00;0.00;;;;;;;;;;5113339;28;20051;-60
2022/09/16 11:26:12;;;;;;;0.00;0.00;;;;;;;;;;5112198;28;20110;-59
2022/09/16 11:28:52;;;;;;;0.08;0.03;;;;;;;;;;5125922;27;20045;-60
2022/09/16 11:31:37;;;;;;;0.00;0.00;;;;;;;;;;5127396;27;20021;-60
2022/09/16 11:34:02;;;;;;;0.00;0.00;;;;;;;;;;5113926;28;20023;-60
2022/09/16 11:36:31;;;;;;;0.00;0.00;;;;;;;;;;5132577;27;20361;-60
2022/09/16 11:39:15;;;;;;;0.00;0.00;;;;;;;;;;5118278;27;20028;-60
2022/09/16 11:41:49;;;;;;;0.00;0.00;;;;;;;;;;5128091;27;20015;-61
2022/09/16 11:44:33;;;;;;;0.00;0.00;;;;;;;;;;5134049;27;20025;-61
2022/09/16 11:47:07;;;;;;;0.03;0.03;;;;;;;;;;5119056;28;20032;-61
2022/09/16 11:49:51;;;;;;;0.00;0.00;;;;;;;;;;5113324;28;20434;-60
2022/09/16 11:52:24;;;;;;;0.00;0.00;;;;;;;;;;5113652;28;20019;-60
2022/09/16 11:55:08;;;;;;;0.00;0.00;;;;;;;;;;5115886;28;20015;-61
2022/09/16 11:57:35;;;;;;;0.22;0.22;;;;;;;;;;5113192;28;20101;-60
2022/09/16 12:00:04;;;;;;;0.00;0.00;;;;;;;;;;5133571;28;20019;-61
2022/09/16 12:02:41;;;;;;;0.00;0.00;;;;;;;;;;5122703;27;20023;-60
2022/09/16 12:05:14;;;;;;;0.00;0.00;;;;;;;;;;5121692;28;20544;-54
2022/09/16 12:08:02;;;;;;;0.00;0.00;;;;;;;;;;5123352;28;20027;-54
2022/09/16 12:10:44;;;;;;;0.00;0.00;;;;;;;;;;5119761;28;20182;-53
2022/09/16 12:13:16;;;;;;;0.00;0.00;;;;;;;;;;5117823;28;20016;-51
2022/09/16 12:15:47;;;;;;;0.00;0.00;;;;;;;;;;5117663;28;20504;-50
2022/09/16 12:18:18;;;;;;;0.00;0.00;;;;;;;;;;5120372;28;20015;-50
2022/09/16 12:20:51;;;;;;;0.00;0.00;;;;;;;;;;5114954;27;20454;-49
2022/09/16 12:23:18;;;;;;;0.00;0.00;;;;;;;;;;5113292;27;20019;-53
2022/09/16 12:25:51;;;;;;;0.00;0.00;;;;;;;;;;5115968;27;20023;-52
2022/09/16 12:28:25;;;;;;;0.00;0.00;;;;;;;;;;5117095;27;20019;-50
2022/09/16 12:31:05;;;;;;;0.00;0.00;;;;;;;;;;5127032;27;20018;-52
2022/09/16 12:33:33;;;;;;;0.00;0.00;;;;;;;;;;5122592;27;20012;-49
2022/09/16 12:36:02;;;;;;;0.00;0.00;;;;;;;;;;5125102;27;20027;-52
2022/09/16 12:38:28;;;;;;;0.00;0.00;;;;;;;;;;5123264;27;20038;-52
2022/09/16 12:41:05;;;;;;;0.00;0.00;;;;;;;;;;5126544;27;20442;-52
2022/09/16 12:43:46;;;;;;;1.08;1.08;;;;;;;;;;5129223;27;20077;-49
2022/09/16 12:46:17;;;;;;;0.00;0.00;;;;;;;;;;5115283;27;20056;-50
2022/09/16 12:49:01;;;;;;;0.00;0.00;;;;;;;;;;5120878;27;20019;-53
2022/09/16 12:51:26;;;;;;;0.00;0.00;;;;;;;;;;5120834;27;20022;-49
2022/09/16 12:54:21;;;;;;;0.00;0.00;;;;;;;;;;5116825;27;20023;-52
2022/09/16 12:56:46;;;;;;;0.00;0.00;;;;;;;;;;5111312;27;20264;-52
2022/09/16 12:59:26;;;;;;;0.00;0.00;;;;;;;;;;5117529;27;20044;-55
2022/09/16 13:01:55;;;;;;;0.00;0.00;;;;;;;;;;5122878;27;20265;-55
2022/09/16 13:04:23;;;;;;;0.00;0.00;;;;;;;;;;5125814;27;20023;-55
2022/09/16 13:06:52;;;;;;;0.00;0.00;;;;;;;;;;5122683;27;20353;-53
2022/09/16 13:09:32;;;;;;;0.00;0.00;;;;;;;;;;5120696;27;20041;-54
2022/09/16 13:11:58;;;;;;;;;;;;;;;;;;5123755;27;20031;-57
2022/09/16 13:14:26;;;;;;;0.50;0.50;;;;;;;;;;5127024;27;19914;-58
2022/09/16 13:16:53;;;;;;;0.00;0.00;;;;;;;;;;5123066;27;20019;-59
2022/09/16 13:19:38;;;;;;;0.00;0.00;;;;;;;;;;5122717;27;20655;-59
2022/09/16 13:22:22;;;;;;;0.00;0.00;;;;;;;;;;5122080;27;20023;-58
2022/09/16 13:24:49;;;;;;;0.00;0.00;;;;;;;;;;5115163;27;20023;-59
2022/09/16 13:27:25;;;;;;;0.85;0.85;;;;;;;;;;5125341;27;20072;-55
2022/09/16 13:29:51;;;;;;;0.00;0.00;;;;;;;;;;5124483;27;20045;-59
2022/09/16 13:32:35;;;;;;;0.20;0.20;;;;;;;;;;5124687;27;20023;-58
2022/09/16 13:35:01;;;;;;;0.20;0.20;;;;;;;;;;5117572;27;20406;-59
2022/09/16 13:37:26;;;;;;;0.60;0.60;;;;;;;;;;5118350;27;20487;-60
2022/09/16 13:39:52;;;;;;;0.00;0.00;;;;;;;;;;5118733;27;20113;-59
2022/09/16 13:42:19;;;;;;;0.10;0.10;;;;;;;;;;5121400;27;20031;-59
2022/09/16 13:44:44;;;;;;;0.00;0.00;;;;;;;;;;5121564;27;20022;-59
2022/09/16 13:47:10;;;;;;;0.00;0.00;;;;;;;;;;5123352;27;20524;-60
2022/09/16 13:49:55;;;;;;;0.00;0.00;;;;;;;;;;5119833;27;20027;-60
2022/09/16 13:52:20;;;;;;;0.10;0.10;;;;;;;;;;5117907;27;20280;-59
2022/09/16 13:54:47;;;;;;;0.00;0.00;;;;;;;;;;5122875;27;20028;-58
2022/09/16 13:57:18;;;;;;;0.10;0.10;;;;;;;;;;5118543;27;20098;-62
2022/09/16 14:00:03;;;;;;;0.38;0.38;;;;;;;;;;5126515;27;20414;-60
2022/09/16 14:02:31;;;;;;;0.00;0.00;;;;;;;;;;5118180;27;20094;-60
2022/09/16 14:05:02;;;;;;;6.93;5.72;;;;;;;;;;5124557;27;20057;-61
2022/09/16 14:07:50;;;;;;;0.00;0.00;;;;;;;;;;5116505;27;20015;-60
2022/09/16 14:10:15;;;;;;;6.60;0.38;;;;;;;;;;5118176;27;20033;-60
2022/09/16 14:12:45;;;;;;;0.20;0.20;;;;;;;;;;5129910;27;20015;-60
2022/09/16 14:15:11;;;;;;;0.00;0.00;;;;;;;;;;5122961;27;20253;-61
2022/09/16 14:17:39;;;;;;;0.00;0.00;;;;;;;;;;5122202;27;20015;-60
2022/09/16 14:20:04;;;;;;;0.00;0.00;;;;;;;;;;5117449;27;20246;-60
2022/09/16 14:22:30;;;;;;;0.03;0.03;;;;;;;;;;5118380;27;20876;-61
2022/09/16 14:24:55;;;;;;;0.00;0.00;;;;;;;;;;5122265;27;20031;-59
2022/09/16 14:27:21;;;;;;;0.10;0.10;;;;;;;;;;5122339;27;20027;-59
2022/09/16 14:30:12;;;;;;;2.00;0.20;;;;;;;;;;5123296;27;20031;-59
2022/09/16 14:32:38;;;;;;;0.00;0.00;;;;;;;;;;5125374;27;20084;-59
2022/09/16 14:35:08;;;;;;;0.20;0.20;;;;;;;;;;5125097;27;20046;-61
2022/09/16 14:37:33;;;;;;;0.00;0.00;;;;;;;;;;5121797;27;20027;-59
2022/09/16 14:40:03;;;;;;;0.00;0.00;;;;;;;;;;5128759;27;20026;-59
2022/09/16 14:42:29;;;;;;;0.20;0.20;;;;;;;;;;5122692;27;20486;-63
2022/09/16 14:44:55;;;;;;;0.28;0.28;;;;;;;;;;5120617;27;20232;-59
2022/09/16 14:47:24;;;;;;;0.00;0.00;;;;;;;;;;5122801;27;20092;-59
2022/09/16 14:49:51;;;;;;;0.00;0.00;;;;;;;;;;5122977;27;20027;-59
2022/09/16 14:52:21;;;;;;;0.00;0.00;;;;;;;;;;5119411;27;20364;-58
2022/09/16 14:54:46;;;;;;;0.00;0.00;;;;;;;;;;5122249;27;20015;-59
2022/09/16 14:57:38;;;;;;;0.00;0.00;;;;;;;;;;5122780;27;20022;-60